createdAt,value
2018-05-21T00:00:41.141Z,18.40
2018-05-21T00:02:42.880Z,18.39
2018-05-21T00:04:44.731Z,18.31
2018-05-21T00:06:46.531Z,18.21
2018-05-21T00:08:48.337Z,18.21
2018-05-21T00:10:49.811Z,18.17
2018-05-21T00:12:51.289Z,18.07
2018-05-21T00:14:52.883Z,17.91
2018-05-21T00:16:54.418Z,18.02
2018-05-21T00:18:56.153Z,18.02
2018-05-21T00:20:57.888Z,17.92
2018-05-21T00:22:59.771Z,17.81
2018-05-21T00:25:01.581Z,17.81
2018-05-21T00:27:03.433Z,17.79
2018-05-21T00:29:05.177Z,17.79
2018-05-21T00:31:07.067Z,17.79
2018-05-21T00:33:08.863Z,17.69
2018-05-21T00:35:10.650Z,17.70
2018-05-21T00:37:12.164Z,17.76
2018-05-21T00:39:13.900Z,17.59
2018-05-21T00:41:15.697Z,17.67
2018-05-21T00:43:17.527Z,17.66
2018-05-21T00:45:19.212Z,17.54
2018-05-21T00:47:21.035Z,17.54
2018-05-21T00:49:22.736Z,17.57
2018-05-21T00:51:24.581Z,17.53
2018-05-21T00:53:26.278Z,17.59
2018-05-21T00:55:28.055Z,17.51
2018-05-21T00:57:29.870Z,17.51
2018-05-21T00:59:31.698Z,17.47
2018-05-21T01:01:33.474Z,17.46
2018-05-21T01:03:35.236Z,17.50
2018-05-21T01:05:37.000Z,17.41
2018-05-21T01:07:38.715Z,17.35
2018-05-21T01:09:40.552Z,17.38
2018-05-21T01:11:42.213Z,17.32
2018-05-21T01:13:43.952Z,17.33
2018-05-21T01:15:45.724Z,17.28
2018-05-21T01:17:47.532Z,17.25
2018-05-21T01:19:49.005Z,17.33
2018-05-21T01:21:50.687Z,17.25
2018-05-21T01:23:52.475Z,17.20
2018-05-21T01:25:54.214Z,17.26
2018-05-21T01:27:55.940Z,17.15
2018-05-21T01:29:57.674Z,17.17
2018-05-21T01:31:59.442Z,17.17
2018-05-21T01:34:01.118Z,17.08
2018-05-21T01:36:02.878Z,17.04
2018-05-21T01:38:04.523Z,17.06
2018-05-21T01:40:06.024Z,16.98
2018-05-21T01:42:07.527Z,16.99
2018-05-21T01:44:09.024Z,16.99
2018-05-21T01:46:10.736Z,16.89
2018-05-21T01:48:12.542Z,16.89
2018-05-21T01:50:14.274Z,16.95
2018-05-21T01:52:16.059Z,16.89
2018-05-21T01:54:17.751Z,16.85
2018-05-21T01:56:19.590Z,16.81
2018-05-21T01:58:21.374Z,16.73
2018-05-21T02:00:23.212Z,16.71
2018-05-21T02:02:24.928Z,16.70
2018-05-21T02:04:26.751Z,16.65
2018-05-21T02:06:28.628Z,16.55
2018-05-21T02:08:30.424Z,16.55
2018-05-21T02:10:32.092Z,16.52
2018-05-21T02:12:33.989Z,16.55
2018-05-21T02:14:35.799Z,16.44
2018-05-21T02:16:37.587Z,16.42
2018-05-21T02:18:39.180Z,16.42
2018-05-21T02:20:40.732Z,16.44
2018-05-21T02:22:42.357Z,16.41
2018-05-21T02:24:44.213Z,16.40
2018-05-21T02:26:45.993Z,16.41
2018-05-21T02:28:47.804Z,16.38
2018-05-21T02:30:49.645Z,16.31
2018-05-21T02:32:51.393Z,16.35
2018-05-21T02:34:53.251Z,16.27
2018-05-21T02:36:55.138Z,16.30
2018-05-21T02:38:56.844Z,16.22
2018-05-21T02:40:58.570Z,16.22
2018-05-21T02:43:00.288Z,16.27
2018-05-21T02:45:01.991Z,16.18
2018-05-21T02:47:03.776Z,16.23
2018-05-21T02:49:05.416Z,16.06
2018-05-21T02:51:07.227Z,16.18
2018-05-21T02:53:09.024Z,16.14
2018-05-21T02:55:10.823Z,16.14
2018-05-21T02:57:12.556Z,16.11
2018-05-21T02:59:14.336Z,16.04
2018-05-21T03:01:15.986Z,16.04
2018-05-21T03:03:17.765Z,16.03
2018-05-21T03:05:19.571Z,16.04
2018-05-21T03:07:21.325Z,16.03
2018-05-21T03:09:23.082Z,16.03
2018-05-21T03:11:24.942Z,16.00
2018-05-21T03:13:26.655Z,16.01
2018-05-21T03:15:28.472Z,15.93
2018-05-21T03:17:30.193Z,15.93
2018-05-21T03:19:32.023Z,16.03
2018-05-21T03:21:33.743Z,16.00
2018-05-21T03:23:35.590Z,15.99
2018-05-21T03:25:37.391Z,15.92
2018-05-21T03:27:39.297Z,15.88
2018-05-21T03:29:40.980Z,15.86
2018-05-21T03:31:42.787Z,15.88
2018-05-21T03:33:44.435Z,15.85
2018-05-21T03:35:46.252Z,15.82
2018-05-21T03:37:47.995Z,15.78
2018-05-21T03:39:49.777Z,15.75
2018-05-21T03:41:51.604Z,15.78
2018-05-21T03:43:53.230Z,15.76
2018-05-21T03:45:54.746Z,15.75
2018-05-21T03:47:56.395Z,15.79
2018-05-21T03:49:58.153Z,15.74
2018-05-21T03:51:59.968Z,15.75
2018-05-21T03:54:01.529Z,15.81
2018-05-21T03:56:03.276Z,15.76
2018-05-21T03:58:05.069Z,15.76
2018-05-21T04:00:06.721Z,15.82
2018-05-21T04:02:08.460Z,15.74
2018-05-21T04:04:10.189Z,15.79
2018-05-21T04:06:11.837Z,15.70
2018-05-21T04:08:13.528Z,15.76
2018-05-21T04:10:15.159Z,15.76
2018-05-21T04:12:16.961Z,15.78
2018-05-21T04:14:18.752Z,15.66
2018-05-21T04:16:20.607Z,15.68
2018-05-21T04:18:22.344Z,15.70
2018-05-21T04:20:24.149Z,15.79
2018-05-21T04:22:25.923Z,15.75
2018-05-21T04:24:27.752Z,15.78
2018-05-21T04:26:29.503Z,15.72
2018-05-21T04:28:31.320Z,15.70
2018-05-21T04:30:33.015Z,15.76
2018-05-21T04:32:34.720Z,15.74
2018-05-21T04:34:36.449Z,15.72
2018-05-21T04:36:38.273Z,15.82
2018-05-21T04:38:40.094Z,15.76
2018-05-21T04:40:41.832Z,15.79
2018-05-21T04:42:43.628Z,15.81
2018-05-21T04:44:45.305Z,15.81
2018-05-21T04:46:47.098Z,15.82
2018-05-21T04:48:48.809Z,15.86
2018-05-21T04:50:50.558Z,15.88
2018-05-21T04:52:53.194Z,15.86
2018-05-21T04:54:54.947Z,15.93
2018-05-21T04:56:56.626Z,15.92
2018-05-21T04:58:58.428Z,15.99
2018-05-21T05:01:00.141Z,15.96
2018-05-21T05:03:01.900Z,15.96
2018-05-21T05:05:03.711Z,16.04
2018-05-21T05:07:05.368Z,16.01
2018-05-21T05:09:06.854Z,16.00
2018-05-21T05:11:08.391Z,16.14
2018-05-21T05:13:09.995Z,16.14
2018-05-21T05:15:11.464Z,16.09
2018-05-21T05:17:12.949Z,16.18
2018-05-21T05:19:14.432Z,16.18
2018-05-21T05:21:15.946Z,16.31
2018-05-21T05:23:17.442Z,16.44
2018-05-21T05:25:18.967Z,16.44
2018-05-21T05:27:20.684Z,16.50
2018-05-21T05:29:22.549Z,16.58
2018-05-21T05:31:24.087Z,16.73
2018-05-21T05:33:25.816Z,16.74
2018-05-21T05:35:27.222Z,16.92
2018-05-21T05:37:28.739Z,17.17
2018-05-21T05:39:30.176Z,17.91
2018-05-21T05:41:31.606Z,18.49
2018-05-21T05:43:33.057Z,18.52
2018-05-21T05:45:34.482Z,18.55
2018-05-21T05:47:35.909Z,18.49
2018-05-21T05:49:37.375Z,19.20
2018-05-21T05:51:38.801Z,20.54
2018-05-21T05:53:40.230Z,21.59
2018-05-21T05:55:41.659Z,22.19
2018-05-21T05:57:43.089Z,22.12
2018-05-21T05:59:44.517Z,21.81
2018-05-21T06:01:45.947Z,21.85
2018-05-21T06:03:47.376Z,21.92
2018-05-21T06:05:48.809Z,21.71
2018-05-21T06:07:50.249Z,21.36
2018-05-21T06:09:53.523Z,21.72
2018-05-21T06:11:55.042Z,23.24
2018-05-21T06:13:56.478Z,25.15
2018-05-21T06:15:57.910Z,25.72
2018-05-21T06:17:59.343Z,25.82
2018-05-21T06:20:00.777Z,25.79
2018-05-21T06:22:02.215Z,26.44
2018-05-21T06:24:03.651Z,27.28
2018-05-21T06:26:05.086Z,26.86
2018-05-21T06:28:06.525Z,25.94
2018-05-21T06:30:07.955Z,25.00
2018-05-21T06:32:09.388Z,24.02
2018-05-21T06:34:11.015Z,23.61
2018-05-21T06:36:12.261Z,23.14
2018-05-21T06:38:13.696Z,23.14
2018-05-21T06:40:15.136Z,24.37
2018-05-21T06:42:16.571Z,26.61
2018-05-21T06:44:18.017Z,28.54
2018-05-21T06:46:19.445Z,30.07
2018-05-21T06:48:20.882Z,30.52
2018-05-21T06:50:22.435Z,31.39
2018-05-21T06:52:25.947Z,32.27
2018-05-21T06:54:27.390Z,32.71
2018-05-21T06:56:29.209Z,33.19
2018-05-21T06:58:30.755Z,33.37
2018-05-21T07:00:32.199Z,33.43
2018-05-21T07:02:33.635Z,33.43
2018-05-21T07:04:35.082Z,33.58
2018-05-21T07:06:36.664Z,34.24
2018-05-21T07:08:38.177Z,34.01
2018-05-21T07:10:39.627Z,34.16
2018-05-21T07:12:41.105Z,34.27
2018-05-21T07:14:42.569Z,34.31
2018-05-21T07:16:44.297Z,34.23
2018-05-21T07:18:46.154Z,33.78
2018-05-21T07:20:47.712Z,33.45
2018-05-21T07:22:49.460Z,32.98
2018-05-21T07:25:31.858Z,31.92
2018-05-21T07:27:33.293Z,31.45
2018-05-21T07:29:34.736Z,30.11
2018-05-21T07:31:36.200Z,29.13
2018-05-21T07:33:37.776Z,28.23
2018-05-21T07:35:39.220Z,27.10
2018-05-21T07:37:40.753Z,26.28
2018-05-21T07:39:42.822Z,25.54
2018-05-21T07:41:44.385Z,25.01
2018-05-21T07:43:45.978Z,24.83
2018-05-21T07:45:47.485Z,24.45
2018-05-21T07:47:49.131Z,24.10
2018-05-21T07:49:50.624Z,23.87
2018-05-21T07:51:52.146Z,23.71
2018-05-21T07:53:53.660Z,23.57
2018-05-21T07:55:55.204Z,23.39
2018-05-21T07:57:56.712Z,23.34
2018-05-21T07:59:58.310Z,23.15
2018-05-21T08:01:59.880Z,23.17
2018-05-21T08:04:01.495Z,22.96
2018-05-21T08:06:43.940Z,23.08
2018-05-21T08:08:45.385Z,23.07
2018-05-21T08:10:46.806Z,22.99
2018-05-21T08:12:48.332Z,23.07
2018-05-21T08:14:49.794Z,22.97
2018-05-21T08:16:51.267Z,23.11
2018-05-21T08:18:52.735Z,23.23
2018-05-21T08:20:54.227Z,23.38
2018-05-21T08:22:55.641Z,23.32
2018-05-21T08:24:57.433Z,23.47
2018-05-21T08:26:58.854Z,23.58
2018-05-21T08:29:00.287Z,23.49
2018-05-21T08:31:01.743Z,23.71
2018-05-21T08:33:03.160Z,23.87
2018-05-21T08:35:04.596Z,23.86
2018-05-21T08:37:06.031Z,24.16
2018-05-21T08:39:07.468Z,24.17
2018-05-21T08:41:08.909Z,24.38
2018-05-21T08:43:10.338Z,24.56
2018-05-21T08:45:11.778Z,24.69
2018-05-21T08:47:13.214Z,24.85
2018-05-21T08:49:14.653Z,24.94
2018-05-21T08:51:16.133Z,24.83
2018-05-21T08:53:17.569Z,24.94
2018-05-21T08:55:19.064Z,24.88
2018-05-21T08:57:20.445Z,25.01
2018-05-21T08:59:21.883Z,25.05
2018-05-21T09:01:23.358Z,25.32
2018-05-21T09:03:24.793Z,25.49
2018-05-21T09:05:26.235Z,25.62
2018-05-21T09:07:27.669Z,25.67
2018-05-21T09:09:29.152Z,25.72
2018-05-21T09:11:30.584Z,25.87
2018-05-21T09:13:32.053Z,25.74
2018-05-21T09:15:33.506Z,25.80
2018-05-21T09:17:34.915Z,25.99
2018-05-21T09:19:36.355Z,26.01
2018-05-21T09:21:37.796Z,26.22
2018-05-21T09:23:39.296Z,26.47
2018-05-21T09:25:40.766Z,26.50
2018-05-21T09:27:42.188Z,26.46
2018-05-21T09:29:43.642Z,26.44
2018-05-21T09:31:45.203Z,26.54
2018-05-21T09:33:46.940Z,26.57
2018-05-21T09:35:48.454Z,26.57
2018-05-21T09:37:50.347Z,26.61
2018-05-21T09:39:51.946Z,26.50
2018-05-21T09:41:53.840Z,26.62
2018-05-21T09:43:55.421Z,26.73
2018-05-21T09:45:56.973Z,26.73
2018-05-21T09:47:58.521Z,26.86
2018-05-21T09:50:00.162Z,26.84
2018-05-21T09:52:01.710Z,26.86
2018-05-21T09:54:03.226Z,26.95
2018-05-21T09:56:04.746Z,26.91
2018-05-21T09:58:06.477Z,26.98
2018-05-21T10:00:07.999Z,27.23
2018-05-21T10:02:09.542Z,27.21
2018-05-21T10:04:11.061Z,27.10
2018-05-21T10:06:12.651Z,27.05
2018-05-21T10:08:14.431Z,27.06
2018-05-21T10:10:16.024Z,27.10
2018-05-21T10:12:17.561Z,27.05
2018-05-21T10:14:19.156Z,27.28
2018-05-21T10:16:20.763Z,27.35
2018-05-21T10:18:22.311Z,27.21
2018-05-21T10:20:24.112Z,27.26
2018-05-21T10:22:25.652Z,27.35
2018-05-21T10:24:27.209Z,27.58
2018-05-21T10:27:09.652Z,27.67
2018-05-21T10:29:11.100Z,27.86
2018-05-21T10:31:12.765Z,27.99
2018-05-21T10:33:14.497Z,28.29
2018-05-21T10:35:16.035Z,28.16
2018-05-21T10:37:17.657Z,27.99
2018-05-21T10:39:19.083Z,27.80
2018-05-21T10:41:20.628Z,27.82
2018-05-21T10:43:22.149Z,27.94
2018-05-21T10:46:03.629Z,28.17
2018-05-21T10:48:05.058Z,27.98
2018-05-21T10:50:06.517Z,28.06
2018-05-21T10:52:07.999Z,28.07
2018-05-21T10:54:09.436Z,28.13
2018-05-21T10:56:51.865Z,28.11
2018-05-21T10:58:53.425Z,28.10
2018-05-21T11:00:55.428Z,28.14
2018-05-21T11:02:56.845Z,28.29
2018-05-21T11:04:58.270Z,28.32
2018-05-21T11:06:59.762Z,28.10
2018-05-21T11:09:01.223Z,27.94
2018-05-21T11:11:02.704Z,27.98
2018-05-21T11:13:04.749Z,28.01
2018-05-21T11:15:47.639Z,27.80
2018-05-21T11:17:49.159Z,27.67
2018-05-21T11:19:50.528Z,27.74
2018-05-21T11:21:52.345Z,27.96
2018-05-21T11:23:53.775Z,28.22
2018-05-21T11:26:35.312Z,28.09
2018-05-21T11:28:36.784Z,27.98
2018-05-21T11:30:38.262Z,27.96
2018-05-21T11:32:40.208Z,28.06
2018-05-21T11:34:41.780Z,28.17
2018-05-21T11:36:43.338Z,28.33
2018-05-21T11:38:44.877Z,28.32
2018-05-21T11:40:46.437Z,28.10
2018-05-21T11:42:48.035Z,27.94
2018-05-21T11:44:49.555Z,27.98
2018-05-21T11:46:51.318Z,28.13
2018-05-21T11:48:52.941Z,28.28
2018-05-21T11:50:54.537Z,28.14
2018-05-21T11:52:56.355Z,28.19
2018-05-21T11:54:58.296Z,28.04
2018-05-21T11:57:00.181Z,28.29
2018-05-21T11:59:02.020Z,28.06
2018-05-21T12:01:03.679Z,28.01
2018-05-21T12:03:05.221Z,28.01
2018-05-21T12:05:07.129Z,27.98
2018-05-21T12:07:08.723Z,27.98
2018-05-21T12:09:10.635Z,27.86
2018-05-21T12:11:12.286Z,27.80
2018-05-21T12:13:13.839Z,27.69
2018-05-21T12:15:15.449Z,27.51
2018-05-21T12:17:16.990Z,27.48
2018-05-21T12:19:18.570Z,27.74
2018-05-21T12:21:20.136Z,27.89
2018-05-21T12:23:21.797Z,28.14
2018-05-21T12:25:23.495Z,28.29
2018-05-21T12:27:25.042Z,28.19
2018-05-21T12:29:26.660Z,28.07
2018-05-21T12:31:28.585Z,28.07
2018-05-21T12:33:30.202Z,28.28
2018-05-21T12:35:31.995Z,28.36
2018-05-21T12:37:33.657Z,28.14
2018-05-21T12:39:35.260Z,28.31
2018-05-21T12:41:37.390Z,28.41
2018-05-21T12:43:39.192Z,28.36
2018-05-21T12:45:40.818Z,28.19
2018-05-21T12:47:42.672Z,28.28
2018-05-21T12:49:44.635Z,28.32
2018-05-21T12:51:46.467Z,28.47
2018-05-21T12:53:48.225Z,28.11
2018-05-21T12:55:49.779Z,28.25
2018-05-21T12:57:51.326Z,28.17
2018-05-21T12:59:52.970Z,28.19
2018-05-21T13:01:54.980Z,28.06
2018-05-21T13:03:56.706Z,28.11
2018-05-21T13:05:58.530Z,28.31
2018-05-21T13:08:00.175Z,28.36
2018-05-21T13:10:01.735Z,28.32
2018-05-21T13:12:03.284Z,28.22
2018-05-21T13:14:04.780Z,28.23
2018-05-21T13:16:06.332Z,28.13
2018-05-21T13:18:07.902Z,28.09
2018-05-21T13:20:09.530Z,28.28
2018-05-21T13:22:11.600Z,28.23
2018-05-21T13:24:13.610Z,28.33
2018-05-21T13:26:15.077Z,28.17
2018-05-21T13:28:16.824Z,27.99
2018-05-21T13:30:18.769Z,28.13
2018-05-21T13:32:20.668Z,28.26
2018-05-21T13:34:22.360Z,28.10
2018-05-21T13:36:24.173Z,28.01
2018-05-21T13:38:25.824Z,28.13
2018-05-21T13:40:27.442Z,28.03
2018-05-21T13:42:29.278Z,27.98
2018-05-21T13:44:31.153Z,27.95
2018-05-21T13:46:32.943Z,27.92
2018-05-21T13:48:34.881Z,28.01
2018-05-21T13:50:36.847Z,28.04
2018-05-21T13:52:38.607Z,27.96
2018-05-21T13:54:40.241Z,28.04
2018-05-21T13:56:41.965Z,27.99
2018-05-21T13:58:43.728Z,27.99
2018-05-21T14:00:45.550Z,27.94
2018-05-21T14:02:47.497Z,27.95
2018-05-21T14:04:49.234Z,28.01
2018-05-21T14:07:32.293Z,28.09
2018-05-21T14:09:34.447Z,28.21
2018-05-21T14:11:36.093Z,28.31
2018-05-21T14:13:37.716Z,28.09
2018-05-21T14:15:39.577Z,27.99
2018-05-21T14:17:41.542Z,27.99
2018-05-21T14:19:43.336Z,27.91
2018-05-21T14:21:44.929Z,27.91
2018-05-21T14:23:46.439Z,28.07
2018-05-21T14:26:29.015Z,28.21
2018-05-21T14:28:30.428Z,28.26
2018-05-21T14:30:31.864Z,28.06
2018-05-21T14:32:33.329Z,28.06
2018-05-21T14:34:35.003Z,27.99
2018-05-21T14:36:36.460Z,28.06
2018-05-21T14:38:37.991Z,27.98
2018-05-21T14:40:39.591Z,28.21
2018-05-21T14:42:41.583Z,28.35
2018-05-21T14:44:43.125Z,28.29
2018-05-21T14:46:44.579Z,28.14
2018-05-21T14:48:46.555Z,28.04
2018-05-21T14:50:48.692Z,28.03
2018-05-21T14:52:50.567Z,28.14
2018-05-21T14:54:52.171Z,28.03
2018-05-21T14:56:53.829Z,28.03
2018-05-21T14:58:55.741Z,28.01
2018-05-21T15:00:57.325Z,28.04
2018-05-21T15:02:58.882Z,28.16
2018-05-21T15:05:00.676Z,28.16
2018-05-21T15:07:02.229Z,27.94
2018-05-21T15:09:03.836Z,27.99
2018-05-21T15:11:05.352Z,28.04
2018-05-21T15:13:06.815Z,28.01
2018-05-21T15:15:08.283Z,27.96
2018-05-21T15:17:10.053Z,28.09
2018-05-21T15:19:12.151Z,27.99
2018-05-21T15:21:14.056Z,28.03
2018-05-21T15:23:15.878Z,27.96
2018-05-21T15:25:17.745Z,27.94
2018-05-21T15:27:19.569Z,27.96
2018-05-21T15:29:21.384Z,27.88
2018-05-21T15:31:23.222Z,27.86
2018-05-21T15:33:24.996Z,27.70
2018-05-21T15:35:26.736Z,27.67
2018-05-21T15:37:28.480Z,27.73
2018-05-21T15:39:30.053Z,27.79
2018-05-21T15:41:31.588Z,27.69
2018-05-21T15:43:33.232Z,27.77
2018-05-21T15:45:35.077Z,27.77
2018-05-21T15:47:36.861Z,27.66
2018-05-21T15:50:18.384Z,27.67
2018-05-21T15:52:20.321Z,27.67
2018-05-21T15:54:23.549Z,27.62
2018-05-21T15:56:25.113Z,27.43
2018-05-21T15:58:27.078Z,27.43
2018-05-21T16:00:28.909Z,27.48
2018-05-21T16:02:30.740Z,27.42
2018-05-21T16:04:32.295Z,27.41
2018-05-21T16:06:34.195Z,27.46
2018-05-21T16:08:35.818Z,27.35
2018-05-21T16:10:37.512Z,27.38
2018-05-21T16:12:39.062Z,27.43
2018-05-21T16:14:40.759Z,27.50
2018-05-21T16:16:42.634Z,27.62
2018-05-21T16:18:44.565Z,27.70
2018-05-21T16:20:46.308Z,27.62
2018-05-21T16:22:48.199Z,27.51
2018-05-21T16:24:50.238Z,27.47
2018-05-21T16:26:52.054Z,27.33
2018-05-21T16:29:35.264Z,27.24
2018-05-21T16:31:37.178Z,27.20
2018-05-21T16:33:38.801Z,27.02
2018-05-21T16:35:41.211Z,27.04
2018-05-21T16:37:42.873Z,27.05
2018-05-21T16:39:44.635Z,27.06
2018-05-21T16:41:46.815Z,27.06
2018-05-21T16:43:48.652Z,27.05
2018-05-21T16:45:50.960Z,27.17
2018-05-21T16:47:52.664Z,27.09
2018-05-21T16:49:54.541Z,27.09
2018-05-21T16:51:56.327Z,27.10
2018-05-21T16:53:59.078Z,27.02
2018-05-21T16:56:00.838Z,26.99
2018-05-21T16:58:03.157Z,26.87
2018-05-21T17:00:05.404Z,26.83
2018-05-21T17:02:07.309Z,26.87
2018-05-21T17:04:08.957Z,26.84
2018-05-21T17:06:10.812Z,26.86
2018-05-21T17:08:12.950Z,26.92
2018-05-21T17:10:14.579Z,26.95
2018-05-21T17:12:16.581Z,26.80
2018-05-21T17:14:18.140Z,26.95
2018-05-21T17:16:20.179Z,26.91
2018-05-21T17:18:22.110Z,26.80
2018-05-21T17:20:24.058Z,26.77
2018-05-21T17:22:25.578Z,26.74
2018-05-21T17:24:27.185Z,26.77
2018-05-21T17:26:29.230Z,26.74
2018-05-21T17:28:31.739Z,26.61
2018-05-21T17:30:34.220Z,26.65
2018-05-21T17:32:36.173Z,26.55
2018-05-21T17:34:37.974Z,26.52
2018-05-21T17:36:40.404Z,26.55
2018-05-21T17:38:42.216Z,26.59
2018-05-21T17:40:44.048Z,26.50
2018-05-21T17:42:46.208Z,26.54
2018-05-21T17:44:47.957Z,26.52
2018-05-21T17:46:49.520Z,26.31
2018-05-21T17:48:51.182Z,26.35
2018-05-21T17:50:52.910Z,26.37
2018-05-21T17:52:54.814Z,26.29
2018-05-21T17:54:57.215Z,26.11
2018-05-21T17:56:59.092Z,25.99
2018-05-21T17:59:00.955Z,26.02
2018-05-21T18:01:02.485Z,25.90
2018-05-21T18:03:04.072Z,25.86
2018-05-21T18:05:05.895Z,25.80
2018-05-21T18:07:07.460Z,25.84
2018-05-21T18:09:08.987Z,25.74
2018-05-21T18:11:11.529Z,25.71
2018-05-21T18:13:13.361Z,25.74
2018-05-21T18:15:15.552Z,25.69
2018-05-21T18:17:17.161Z,25.56
2018-05-21T18:19:18.837Z,25.68
2018-05-21T18:21:20.692Z,25.75
2018-05-21T18:23:22.313Z,25.54
2018-05-21T18:25:23.862Z,25.50
2018-05-21T18:27:25.414Z,25.38
2018-05-21T18:29:27.058Z,25.39
2018-05-21T18:31:28.760Z,25.32
2018-05-21T18:33:30.951Z,25.34
2018-05-21T18:35:32.819Z,25.30
2018-05-21T18:37:34.411Z,25.25
2018-05-21T18:39:37.014Z,25.24
2018-05-21T18:41:38.643Z,25.19
2018-05-21T18:43:41.090Z,25.10
2018-05-21T18:45:42.968Z,25.20
2018-05-21T18:47:44.530Z,25.01
2018-05-21T18:50:31.954Z,24.97
2018-05-21T18:52:33.472Z,24.94
2018-05-21T18:54:35.865Z,24.91
2018-05-21T18:56:37.424Z,24.94
2018-05-21T18:58:41.510Z,24.94
2018-05-21T19:00:43.481Z,24.87
2018-05-21T19:02:45.383Z,24.83
2018-05-21T19:04:47.020Z,24.80
2018-05-21T19:06:48.653Z,24.76
2018-05-21T19:09:34.542Z,24.75
2018-05-21T19:11:36.186Z,24.73
2018-05-21T19:13:37.804Z,24.77
2018-05-21T19:15:39.743Z,24.68
2018-05-21T19:17:41.461Z,24.61
2018-05-21T19:19:43.046Z,24.47
2018-05-21T19:21:44.541Z,24.52
2018-05-21T19:23:45.971Z,24.37
2018-05-21T19:25:47.398Z,24.26
2018-05-21T19:27:48.850Z,24.23
2018-05-21T19:29:50.290Z,24.16
2018-05-21T19:31:51.760Z,24.13
2018-05-21T19:33:53.235Z,24.05
2018-05-21T19:35:54.676Z,24.05
2018-05-21T19:37:56.168Z,23.94
2018-05-21T19:39:57.668Z,24.01
2018-05-21T19:41:59.200Z,23.85
2018-05-21T19:44:00.676Z,23.98
2018-05-21T19:46:02.144Z,23.89
2018-05-21T19:48:03.596Z,23.82
2018-05-21T19:50:05.054Z,23.85
2018-05-21T19:52:06.485Z,23.76
2018-05-21T19:54:07.918Z,23.75
2018-05-21T19:56:09.370Z,23.71
2018-05-21T19:58:11.000Z,23.71
2018-05-21T20:00:12.415Z,23.68
2018-05-21T20:02:13.988Z,23.65
2018-05-21T20:04:15.547Z,23.58
2018-05-21T20:06:16.992Z,23.61
2018-05-21T20:08:18.638Z,23.55
2018-05-21T20:10:20.079Z,23.52
2018-05-21T20:12:21.733Z,23.46
2018-05-21T20:14:23.361Z,23.62
2018-05-21T20:16:24.882Z,23.58
2018-05-21T20:18:26.322Z,23.57
2018-05-21T20:20:27.753Z,23.57
2018-05-21T20:22:29.286Z,23.46
2018-05-21T20:24:30.783Z,23.49
2018-05-21T20:26:32.310Z,23.39
2018-05-21T20:28:33.830Z,23.31
2018-05-21T20:30:35.400Z,23.27
2018-05-21T20:32:36.836Z,23.27
2018-05-21T20:34:38.318Z,23.24
2018-05-21T20:36:39.819Z,23.19
2018-05-21T20:38:41.336Z,23.11
2018-05-21T20:40:42.880Z,23.17
2018-05-21T20:42:44.374Z,23.12
2018-05-21T20:44:45.908Z,23.11
2018-05-21T20:46:47.692Z,23.05
2018-05-21T20:48:49.735Z,22.99
2018-05-21T20:50:51.272Z,22.97
2018-05-21T20:52:52.905Z,22.96
2018-05-21T20:54:54.703Z,22.82
2018-05-21T20:56:56.599Z,22.89
2018-05-21T20:58:58.120Z,22.86
2018-05-21T21:00:59.624Z,22.90
2018-05-21T21:03:01.142Z,22.83
2018-05-21T21:05:02.646Z,22.82
2018-05-21T21:07:04.139Z,22.86
2018-05-21T21:09:05.638Z,22.82
2018-05-21T21:11:07.188Z,22.78
2018-05-21T21:13:08.698Z,22.90
2018-05-21T21:15:10.232Z,22.74
2018-05-21T21:17:11.739Z,22.77
2018-05-21T21:19:13.604Z,22.74
2018-05-21T21:21:15.344Z,22.68
2018-05-21T21:23:17.215Z,22.64
2018-05-21T21:25:18.684Z,22.47
2018-05-21T21:27:20.482Z,22.50
2018-05-21T21:29:22.140Z,22.56
2018-05-21T21:31:23.831Z,22.62
2018-05-21T21:33:25.593Z,22.62
2018-05-21T21:35:27.310Z,22.64
2018-05-21T21:37:28.829Z,22.64
2018-05-21T21:39:30.630Z,22.57
2018-05-21T21:41:32.160Z,22.54
2018-05-21T21:43:33.657Z,22.39
2018-05-21T21:45:35.178Z,22.46
2018-05-21T21:47:36.698Z,22.41
2018-05-21T21:49:38.201Z,22.43
2018-05-21T21:51:39.829Z,22.46
2018-05-21T21:53:41.746Z,22.41
2018-05-21T21:55:43.325Z,22.27
2018-05-21T21:57:44.852Z,22.43
2018-05-21T22:00:27.273Z,22.43
2018-05-21T22:02:28.705Z,22.31
2018-05-21T22:04:30.334Z,22.37
2018-05-21T22:06:31.768Z,22.41
2018-05-21T22:08:33.195Z,22.25
2018-05-21T22:10:34.643Z,22.25
2018-05-21T22:12:36.062Z,22.23
2018-05-21T22:14:37.485Z,22.31
2018-05-21T22:16:38.923Z,22.25
2018-05-21T22:18:40.371Z,22.25
2018-05-21T22:20:41.784Z,22.25
2018-05-21T22:22:43.276Z,22.23
2018-05-21T22:24:44.767Z,22.32
2018-05-21T22:26:46.309Z,22.27
2018-05-21T22:28:47.810Z,22.16
2018-05-21T22:30:49.330Z,22.19
2018-05-21T22:32:50.853Z,22.20
2018-05-21T22:34:52.545Z,22.23
2018-05-21T22:36:54.084Z,22.23
2018-05-21T22:39:39.211Z,22.23
2018-05-21T22:41:40.631Z,22.12
2018-05-21T22:43:42.110Z,22.13
2018-05-21T22:45:43.599Z,22.10
2018-05-21T22:47:45.240Z,22.16
2018-05-21T22:49:47.632Z,22.04
2018-05-21T22:51:49.704Z,21.99
2018-05-21T22:53:51.970Z,22.14
2018-05-21T22:55:53.736Z,22.02
2018-05-21T22:57:55.842Z,21.97
2018-05-21T22:59:58.058Z,22.01
2018-05-21T23:01:59.683Z,22.02
2018-05-21T23:04:01.305Z,22.04
2018-05-21T23:06:03.310Z,21.94
2018-05-21T23:08:05.039Z,21.94
2018-05-21T23:10:06.694Z,21.90
2018-05-21T23:12:09.090Z,21.91
2018-05-21T23:14:10.821Z,21.82
2018-05-21T23:16:12.900Z,21.74
2018-05-21T23:18:14.426Z,21.76
2018-05-21T23:20:15.973Z,21.74
2018-05-21T23:22:18.143Z,21.75
2018-05-21T23:24:19.647Z,21.76
2018-05-21T23:26:21.154Z,21.60
2018-05-21T23:28:22.811Z,21.67
2018-05-21T23:30:24.453Z,21.69
2018-05-21T23:32:27.030Z,21.59
2018-05-21T23:34:28.690Z,21.61
2018-05-21T23:36:30.411Z,21.59
2018-05-21T23:38:32.675Z,21.60
2018-05-21T23:40:34.340Z,21.56
2018-05-21T23:42:36.752Z,21.57
2018-05-21T23:44:38.308Z,21.60
2018-05-21T23:46:40.837Z,21.53
2018-05-21T23:48:42.885Z,21.60
2018-05-21T23:50:45.006Z,21.57
2018-05-21T23:52:46.523Z,21.54
2018-05-21T23:54:48.041Z,21.56
2018-05-21T23:56:50.528Z,21.53
2018-05-21T23:58:52.316Z,21.57
